Time;durP1;ratioP1;P1;durP2;ratioP2;P2;SDS_P1;SDS_P2;PMS_P1;PMS_P2;Temp;Humidity;BMP_temperature;BMP_pressure;BME280_temperature;BME280_humidity;BME280_pressure;Samples;Min_cycle;Max_cycle;Signal;HPM_P1;HPM_P2
2021/08/23 00:04:33;;;;;;;8;4.9;;;;;;;18.19;100;98524.59;;;;
2021/08/23 00:14:33;;;;;;;6.8;4.4;;;;;;;18.13;100;98520.58;;;;
2021/08/23 00:24:32;;;;;;;8.6;4.4;;;;;;;18.06;100;98509.52;;;;
2021/08/23 00:34:32;;;;;;;8.1;4.9;;;;;;;18.1;100;98507.66;;;;
2021/08/23 00:44:32;;;;;;;8.4;5.1;;;;;;;17.85;100;98507.13;;;;
2021/08/23 00:54:32;;;;;;;6.8;5.2;;;;;;;18.09;100;98504.14;;;;
2021/08/23 01:04:32;;;;;;;9.4;5.3;;;;;;;18.16;100;98510.88;;;;
2021/08/23 01:14:32;;;;;;;12.2;5.6;;;;;;;18.1;100;98505.72;;;;
2021/08/23 01:24:31;;;;;;;7.2;4.3;;;;;;;18.04;100;98504.44;;;;
2021/08/23 01:34:31;;;;;;;6.2;5.1;;;;;;;18.16;100;98508.15;;;;
2021/08/23 01:44:31;;;;;;;5.5;4.4;;;;;;;18.05;100;98503.27;;;;
2021/08/23 01:54:31;;;;;;;9.5;5.4;;;;;;;18.03;100;98491.94;;;;
2021/08/23 02:04:31;;;;;;;8.7;5.1;;;;;;;17.82;100;98487.97;;;;
2021/08/23 02:14:30;;;;;;;8.1;6;;;;;;;17.9;100;98474.14;;;;
2021/08/23 02:24:33;;;;;;;7.5;4.9;;;;;;;17.93;100;98462.52;;;;
2021/08/23 02:34:30;;;;;;;6.7;4.5;;;;;;;18;100;98453.69;;;;
2021/08/23 02:44:31;;;;;;;9.3;5.2;;;;;;;17.99;100;98449.38;;;;
2021/08/23 02:54:30;;;;;;;8.5;5.1;;;;;;;17.89;100;98439.84;;;;
2021/08/23 03:04:29;;;;;;;10.9;5.9;;;;;;;17.92;100;98447.3;;;;
2021/08/23 03:14:29;;;;;;;8.7;5.9;;;;;;;17.95;100;98426.69;;;;
2021/08/23 03:24:29;;;;;;;6.8;5;;;;;;;17.97;100;98438.05;;;;
2021/08/23 03:34:29;;;;;;;7.9;4.6;;;;;;;17.9;100;98433.24;;;;
2021/08/23 03:44:29;;;;;;;8.4;6;;;;;;;17.95;100;98443.84;;;;
2021/08/23 03:54:28;;;;;;;9.3;5.9;;;;;;;17.97;100;98435.32;;;;
2021/08/23 04:04:28;;;;;;;8.1;5.3;;;;;;;17.83;100;98449.45;;;;
2021/08/23 04:14:28;;;;;;;9;6.4;;;;;;;17.8;100;98452.11;;;;
2021/08/23 04:24:28;;;;;;;8.8;5.2;;;;;;;17.91;100;98464.8;;;;
2021/08/23 04:34:28;;;;;;;13.4;6.8;;;;;;;17.92;100;98462.86;;;;
2021/08/23 04:44:28;;;;;;;10;5.7;;;;;;;18.04;100;98495.47;;;;
2021/08/23 04:54:27;;;;;;;8.6;5.6;;;;;;;17.95;100;98539.29;;;;
2021/08/23 05:04:27;;;;;;;10.5;5.4;;;;;;;17.42;100;98540.77;;;;
2021/08/23 05:14:27;;;;;;;6.8;4.6;;;;;;;17.49;100;98535.48;;;;
2021/08/23 05:24:27;;;;;;;9.7;5.1;;;;;;;17.38;100;98531.75;;;;
2021/08/23 05:34:27;;;;;;;5.7;4;;;;;;;17.4;100;98559.42;;;;
2021/08/23 05:44:27;;;;;;;8.5;5.1;;;;;;;17.49;100;98561.97;;;;
2021/08/23 05:54:26;;;;;;;7.5;4.9;;;;;;;17.66;100;98577.98;;;;
2021/08/23 06:04:26;;;;;;;8.8;4.6;;;;;;;17.72;100;98575.77;;;;
2021/08/23 06:14:26;;;;;;;5.2;3.1;;;;;;;17.76;100;98588.34;;;;
2021/08/23 06:24:26;;;;;;;7.7;5.9;;;;;;;17.82;100;98586.91;;;;
2021/08/23 06:34:26;;;;;;;7.5;5;;;;;;;17.77;100;98589.9;;;;
2021/08/23 06:44:26;;;;;;;5.9;2.8;;;;;;;17.54;100;98586.22;;;;
2021/08/23 06:54:26;;;;;;;6.3;2.5;;;;;;;17.47;100;98583.31;;;;
2021/08/23 07:04:25;;;;;;;5.8;2.7;;;;;;;17.44;100;98584.82;;;;
2021/08/23 07:14:25;;;;;;;3;1.8;;;;;;;17.46;100;98577.07;;;;
2021/08/23 07:24:25;;;;;;;4.5;1.9;;;;;;;17.81;100;98576.34;;;;
2021/08/23 07:34:25;;;;;;;3.2;1.6;;;;;;;18.31;100;98586.42;;;;
2021/08/23 07:44:25;;;;;;;4.5;1.9;;;;;;;18.62;100;98585.52;;;;
2021/08/23 07:54:25;;;;;;;3.8;2.4;;;;;;;18.65;100;98585.59;;;;
2021/08/23 08:04:25;;;;;;;3.7;1.5;;;;;;;18.85;100;98589.88;;;;
2021/08/23 08:14:25;;;;;;;4.7;2;;;;;;;19.01;100;98595.25;;;;
2021/08/23 08:24:25;;;;;;;6;2.5;;;;;;;18.72;100;98593.13;;;;
2021/08/23 08:34:28;;;;;;;6.2;3.6;;;;;;;18.83;100;98600.38;;;;
2021/08/23 08:44:27;;;;;;;4.5;2.5;;;;;;;18.83;100;98607.78;;;;
2021/08/23 08:54:25;;;;;;;4.6;2.5;;;;;;;19.05;100;98616;;;;
2021/08/23 09:04:25;;;;;;;4.4;2.6;;;;;;;19.54;100;98613.38;;;;
2021/08/23 09:14:26;;;;;;;4.7;2.9;;;;;;;19.74;100;98616.84;;;;
2021/08/23 09:24:26;;;;;;;3.7;1.8;;;;;;;20.05;100;98613;;;;
2021/08/23 09:34:26;;;;;;;5;2.3;;;;;;;20.2;100;98609.29;;;;
2021/08/23 09:44:27;;;;;;;7.2;2.5;;;;;;;20.19;100;98612.41;;;;
2021/08/23 09:54:29;;;;;;;6.5;3.1;;;;;;;20.68;100;98606.82;;;;
2021/08/23 10:04:27;;;;;;;4.4;2.5;;;;;;;20.9;100;98603.14;;;;
2021/08/23 10:14:28;;;;;;;5.2;2.5;;;;;;;21.32;100;98608.3;;;;
2021/08/23 10:24:28;;;;;;;6.1;2.2;;;;;;;20.87;100;98615.64;;;;
2021/08/23 10:34:29;;;;;;;8.6;5.1;;;;;;;20.41;100;98615.08;;;;
2021/08/23 10:44:29;;;;;;;5.1;2.9;;;;;;;20.44;100;98619.05;;;;
2021/08/23 10:54:30;;;;;;;6.6;3.9;;;;;;;19.98;100;98626.58;;;;
2021/08/23 11:04:30;;;;;;;7.5;3.7;;;;;;;20.01;100;98612.16;;;;
2021/08/23 11:14:31;;;;;;;3.4;2.2;;;;;;;20.1;100;98599.78;;;;
2021/08/23 11:24:31;;;;;;;4.6;2.1;;;;;;;20.01;100;98579.33;;;;
2021/08/23 11:34:31;;;;;;;5.7;3.5;;;;;;;20.12;100;98574;;;;
2021/08/23 11:44:32;;;;;;;6.2;3.1;;;;;;;20.2;100;98581.92;;;;
2021/08/23 11:54:32;;;;;;;11.2;3.7;;;;;;;20.46;100;98583.86;;;;
2021/08/23 12:04:33;;;;;;;5.4;2.8;;;;;;;20.87;100;98579.23;;;;
2021/08/23 12:14:33;;;;;;;8.9;3.7;;;;;;;21.09;100;98581.84;;;;
2021/08/23 12:24:34;;;;;;;4.2;2.1;;;;;;;21.26;100;98588.67;;;;
2021/08/23 12:34:34;;;;;;;6.4;3.5;;;;;;;21.58;100;98570.55;;;;
2021/08/23 12:44:35;;;;;;;4.6;2.6;;;;;;;22.74;100;98568.84;;;;
2021/08/23 12:54:35;;;;;;;5.1;1.7;;;;;;;23.03;100;98554.78;;;;
2021/08/23 13:04:36;;;;;;;4;2.1;;;;;;;22.95;100;98560.64;;;;
2021/08/23 13:14:37;;;;;;;4.1;2.4;;;;;;;23.24;100;98553.23;;;;
2021/08/23 13:24:41;;;;;;;4.6;2.8;;;;;;;23.68;100;98545.38;;;;
2021/08/23 13:34:38;;;;;;;4.5;2.7;;;;;;;23.84;100;98542.23;;;;
2021/08/23 13:44:39;;;;;;;6.3;2.7;;;;;;;24.04;100;98549.66;;;;
2021/08/23 13:54:40;;;;;;;4.1;2.4;;;;;;;23.1;100;98547.72;;;;
2021/08/23 14:04:41;;;;;;;4.3;2.3;;;;;;;22.52;100;98552.28;;;;
2021/08/23 14:14:42;;;;;;;9.7;2.9;;;;;;;20.67;100;98573.16;;;;
2021/08/23 14:24:42;;;;;;;20.2;13;;;;;;;19.74;100;98550.41;;;;
2021/08/23 14:34:43;;;;;;;6.2;3.3;;;;;;;19.76;100;98551.61;;;;
2021/08/23 14:44:43;;;;;;;7.3;3.2;;;;;;;19.81;100;98542.31;;;;
2021/08/23 14:54:43;;;;;;;3.1;1.6;;;;;;;20.13;100;98546.28;;;;
2021/08/23 15:04:44;;;;;;;4.3;1.7;;;;;;;20.37;100;98547.78;;;;
2021/08/23 15:14:44;;;;;;;4.2;2.3;;;;;;;20.49;100;98540.09;;;;
2021/08/23 15:24:45;;;;;;;4.9;2.3;;;;;;;20.17;100;98538.88;;;;
2021/08/23 15:34:45;;;;;;;4.5;2.5;;;;;;;20.08;100;98527.44;;;;
2021/08/23 15:44:45;;;;;;;5.4;2.6;;;;;;;20.01;100;98519.14;;;;
2021/08/23 15:54:45;;;;;;;8.2;2.9;;;;;;;19.97;100;98516.36;;;;
2021/08/23 16:04:46;;;;;;;6.1;2.9;;;;;;;19.87;100;98500.59;;;;
2021/08/23 16:14:46;;;;;;;4.6;2.2;;;;;;;19.82;100;98500.9;;;;
2021/08/23 16:24:46;;;;;;;5.8;3.1;;;;;;;19.62;100;98495.92;;;;
2021/08/23 16:34:47;;;;;;;6;2.9;;;;;;;19.38;100;98494.38;;;;
2021/08/23 16:44:47;;;;;;;5.1;2.4;;;;;;;19.36;100;98494.76;;;;
2021/08/23 16:54:47;;;;;;;3.7;1.9;;;;;;;19.07;100;98496.24;;;;
2021/08/23 17:04:49;;;;;;;3.5;1.8;;;;;;;18.89;100;98489.69;;;;
2021/08/23 17:14:47;;;;;;;5.9;2.8;;;;;;;18.86;100;98498.61;;;;
2021/08/23 17:24:47;;;;;;;3.6;2.3;;;;;;;18.73;100;98510.08;;;;
2021/08/23 17:34:47;;;;;;;5.7;2.3;;;;;;;18.62;100;98526.25;;;;
2021/08/23 17:44:47;;;;;;;7.8;4.9;;;;;;;18.59;100;98529.71;;;;
2021/08/23 17:54:47;;;;;;;6.6;2.5;;;;;;;18.29;100;98517.79;;;;
2021/08/23 18:04:47;;;;;;;4.6;2.8;;;;;;;18.22;100;98514.92;;;;
2021/08/23 18:14:47;;;;;;;5.7;2.4;;;;;;;17.9;100;98525.95;;;;
2021/08/23 18:24:47;;;;;;;5.7;2.5;;;;;;;17.83;100;98528.52;;;;
2021/08/23 18:34:47;;;;;;;10.7;3.1;;;;;;;17.68;100;98528.55;;;;
2021/08/23 18:44:47;;;;;;;17.6;15.6;;;;;;;17.46;100;98527.23;;;;
2021/08/23 18:54:47;;;;;;;13.1;8.7;;;;;;;17.41;100;98532.97;;;;
2021/08/23 19:04:47;;;;;;;5.8;2.4;;;;;;;17.33;100;98536.66;;;;
2021/08/23 19:14:48;;;;;;;5.6;2.6;;;;;;;17.4;100;98526.72;;;;
2021/08/23 19:24:47;;;;;;;7.2;3.2;;;;;;;17.43;100;98530.66;;;;
2021/08/23 19:34:46;;;;;;;7.2;3.3;;;;;;;17.42;100;98540;;;;
2021/08/23 19:44:46;;;;;;;6.2;2.7;;;;;;;17.37;100;98534.81;;;;
2021/08/23 19:54:46;;;;;;;5.8;2.7;;;;;;;17.28;100;98528.77;;;;
2021/08/23 20:04:46;;;;;;;5.1;3.1;;;;;;;17.33;100;98531.2;;;;
2021/08/23 20:14:46;;;;;;;6.1;3.5;;;;;;;17.33;100;98520.31;;;;
2021/08/23 20:24:46;;;;;;;7.1;4.5;;;;;;;17.29;100;98513.98;;;;
2021/08/23 20:34:45;;;;;;;7.5;4;;;;;;;17.17;100;98516.81;;;;
2021/08/23 20:44:45;;;;;;;7.1;3.5;;;;;;;17.02;100;98516.47;;;;
2021/08/23 20:54:45;;;;;;;5.8;3.4;;;;;;;16.76;100;98515.4;;;;
2021/08/23 21:04:45;;;;;;;5.1;2.8;;;;;;;16.62;100;98507.66;;;;
2021/08/23 21:14:45;;;;;;;6.8;3.3;;;;;;;16.41;100;98498.89;;;;
2021/08/23 21:24:44;;;;;;;6.3;4.7;;;;;;;16.3;100;98492.36;;;;
2021/08/23 21:34:44;;;;;;;5.4;3.9;;;;;;;16.27;100;98495.78;;;;
2021/08/23 21:44:44;;;;;;;12.4;3.7;;;;;;;16.12;100;98489.15;;;;
2021/08/23 21:54:44;;;;;;;7.6;2.9;;;;;;;16.03;100;98480.36;;;;
2021/08/23 22:04:43;;;;;;;9.2;4.3;;;;;;;15.93;100;98487.05;;;;
2021/08/23 22:14:43;;;;;;;5.1;3.2;;;;;;;15.81;100;98484.38;;;;
2021/08/23 22:24:43;;;;;;;7.3;3.7;;;;;;;15.68;100;98479.33;;;;
2021/08/23 22:34:43;;;;;;;6.8;4.3;;;;;;;15.46;100;98483.29;;;;
2021/08/23 22:44:42;;;;;;;5.7;3.1;;;;;;;15.43;100;98489.41;;;;
2021/08/23 22:54:42;;;;;;;6.4;3.9;;;;;;;15.53;100;98472.67;;;;
2021/08/23 23:04:42;;;;;;;7.1;4.5;;;;;;;15.54;100;98496.79;;;;
2021/08/23 23:14:41;;;;;;;7.8;4.2;;;;;;;15.58;100;98477.88;;;;
2021/08/23 23:24:41;;;;;;;9;4.6;;;;;;;15.59;100;98499.25;;;;
2021/08/23 23:34:41;;;;;;;5.3;3.9;;;;;;;15.58;100;98489.52;;;;
2021/08/23 23:44:40;;;;;;;8.3;4.1;;;;;;;15.67;100;98500.27;;;;
2021/08/23 23:54:40;;;;;;;13.3;4.3;;;;;;;15.69;100;98487.12;;;;
